Terminal Aerodrome Forecast
Issued by NWS Flagstaff, AZ

Home | Current Version | Previous Version | Text Only | Print | Product List | Glossary On
Versions: 1 2 3 4 5 6 7 8 9 10 11 12 13
639
FTUS45 KFGZ 271139
TAFINW
TAF
KINW 271139Z 2712/2812 23015KT P6SM BKN200
     FM271600 26015G25KT P6SM BKN200
     FM272000 26025G35KT P6SM SCT100 BKN200
     FM280300 25012KT P6SM BKN200=

USA.gov is the U.S. government's official web portal to all federal, state and local government web resources and services.